Time;durP1;ratioP1;P1;durP2;ratioP2;P2;SDS_P1;SDS_P2;PMS_P1;PMS_P2;Temp;Humidity;BMP_temperature;BMP_pressure;BME280_temperature;BME280_humidity;BME280_pressure;Samples;Min_cycle;Max_cycle;Signal;HPM_P1;HPM_P2
2022/02/24 00:02:18;;;;;;;68.78;9.70;;;;;;;;;;5074678;28;20232;-69
2022/02/24 00:04:45;;;;;;;66.97;8.35;;;;;;;;;;5074493;28;20298;-72
2022/02/24 00:07:12;;;;;;;70.88;9.23;;;;;;;;;;5073930;28;20227;-70
2022/02/24 00:09:39;;;;;;;68.68;9.93;;;;;;;;;;5074291;28;20209;-70
2022/02/24 00:12:07;;;;;;;78.75;14.90;;;;;;;;;;5074711;28;20207;-69
2022/02/24 00:14:35;;;;;;;66.72;8.95;;;;;;;;;;5074378;28;20235;-69
2022/02/24 00:17:03;;;;;;;63.67;8.30;;;;;;;;;;5074534;28;20201;-69
2022/02/24 00:19:31;;;;;;;67.53;8.60;;;;;;;;;;5074000;28;20208;-69
2022/02/24 00:21:58;;;;;;;65.70;8.50;;;;;;;;;;5074411;28;20604;-69
2022/02/24 00:24:25;;;;;;;65.43;9.20;;;;;;;;;;5082075;28;20262;-70
2022/02/24 00:26:52;;;;;;;63.95;7.97;;;;;;;;;;5094401;28;20227;-69
2022/02/24 00:29:19;;;;;;;63.72;7.93;;;;;;;;;;5094008;28;20208;-72
2022/02/24 00:31:48;;;;;;;67.90;7.55;;;;;;;;;;5094333;28;20690;-69
2022/02/24 00:34:15;;;;;;;66.72;8.40;;;;;;;;;;5094063;28;20267;-69
2022/02/24 00:36:43;;;;;;;69.13;8.35;;;;;;;;;;5094629;28;20204;-69
2022/02/24 00:39:10;;;;;;;65.90;7.63;;;;;;;;;;5093603;28;20226;-72
2022/02/24 00:41:37;;;;;;;74.95;10.45;;;;;;;;;;5094356;28;20204;-69
2022/02/24 00:44:04;;;;;;;83.70;13.20;;;;;;;;;;5093936;28;20205;-69
2022/02/24 00:46:32;;;;;;;73.05;9.98;;;;;;;;;;5094060;28;20224;-68
2022/02/24 00:49:00;;;;;;;72.78;10.85;;;;;;;;;;5093687;28;20212;-69
2022/02/24 00:51:27;;;;;;;74.93;8.45;;;;;;;;;;5093916;28;20208;-68
2022/02/24 00:53:54;;;;;;;64.20;7.90;;;;;;;;;;5093228;28;20208;-70
2022/02/24 00:56:21;;;;;;;66.20;7.55;;;;;;;;;;5091870;28;20211;-69
2022/02/24 00:58:48;;;;;;;69.68;7.45;;;;;;;;;;5093586;28;20588;-70
2022/02/24 01:01:15;;;;;;;71.13;8.50;;;;;;;;;;5093756;28;20205;-69
2022/02/24 01:03:43;;;;;;;69.05;8.07;;;;;;;;;;5093218;28;20579;-69
2022/02/24 01:06:11;;;;;;;67.18;7.95;;;;;;;;;;5093216;28;20221;-71
2022/02/24 01:08:38;;;;;;;67.68;8.45;;;;;;;;;;5093498;28;20204;-69
2022/02/24 01:11:06;;;;;;;68.05;8.10;;;;;;;;;;5093583;28;20207;-69
2022/02/24 01:13:33;;;;;;;66.43;8.00;;;;;;;;;;5093390;28;20204;-70
2022/02/24 01:16:00;;;;;;;66.65;7.32;;;;;;;;;;5093719;28;20224;-69
2022/02/24 01:18:29;;;;;;;68.38;7.88;;;;;;;;;;5093127;28;20290;-69
2022/02/24 01:20:56;;;;;;;67.90;7.45;;;;;;;;;;5093149;28;20212;-69
2022/02/24 01:23:25;;;;;;;66.72;7.30;;;;;;;;;;5093204;28;20204;-72
2022/02/24 01:25:52;;;;;;;65.25;7.95;;;;;;;;;;5093193;28;20604;-70
2022/02/24 01:28:19;;;;;;;66.05;7.20;;;;;;;;;;5085063;28;20209;-72
2022/02/24 01:30:46;;;;;;;67.15;8.10;;;;;;;;;;5072877;28;20590;-69
2022/02/24 01:33:13;;;;;;;71.10;7.55;;;;;;;;;;5072564;28;20205;-73
2022/02/24 01:35:40;;;;;;;64.90;6.97;;;;;;;;;;5076729;28;20244;-70
2022/02/24 01:38:08;;;;;;;63.63;7.00;;;;;;;;;;5092666;28;20677;-70
2022/02/24 01:40:36;;;;;;;62.72;6.55;;;;;;;;;;5093041;28;20204;-70
2022/02/24 01:43:04;;;;;;;62.03;6.50;;;;;;;;;;5092880;28;20759;-70
2022/02/24 01:45:31;;;;;;;63.58;7.07;;;;;;;;;;5092599;28;20834;-70
2022/02/24 01:47:58;;;;;;;65.13;7.50;;;;;;;;;;5092270;28;20216;-70
2022/02/24 01:50:26;;;;;;;65.25;7.32;;;;;;;;;;5092911;28;20205;-69
2022/02/24 01:52:53;;;;;;;63.47;7.30;;;;;;;;;;5092564;28;20676;-69
2022/02/24 01:55:20;;;;;;;61.95;6.90;;;;;;;;;;5092450;28;20224;-71
2022/02/24 01:57:49;;;;;;;62.55;7.10;;;;;;;;;;5092318;28;20205;-70
2022/02/24 02:00:16;;;;;;;62.75;6.25;;;;;;;;;;5090363;28;20204;-70
2022/02/24 02:02:43;;;;;;;64.90;6.72;;;;;;;;;;5092096;28;20617;-69
2022/02/24 02:05:10;;;;;;;63.13;7.00;;;;;;;;;;5092539;28;20240;-71
2022/02/24 02:07:38;;;;;;;65.57;6.93;;;;;;;;;;5092143;28;20226;-69
2022/02/24 02:10:05;;;;;;;63.97;7.70;;;;;;;;;;5092621;28;20211;-69
2022/02/24 02:12:32;;;;;;;68.18;8.23;;;;;;;;;;5092178;28;20204;-72
2022/02/24 02:15:02;;;;;;;65.40;7.45;;;;;;;;;;5091458;28;20229;-70
2022/02/24 02:17:29;;;;;;;63.35;7.15;;;;;;;;;;5092068;28;20211;-69
2022/02/24 02:19:56;;;;;;;67.60;7.82;;;;;;;;;;5092152;28;20204;-70
2022/02/24 02:22:25;;;;;;;64.15;6.95;;;;;;;;;;5092288;28;20226;-69
2022/02/24 02:24:59;;;;;;;63.38;7.07;;;;;;;;;;5092089;28;20734;-69
2022/02/24 02:27:26;;;;;;;65.95;7.15;;;;;;;;;;5091658;28;20224;-72
2022/02/24 02:29:54;;;;;;;67.28;7.03;;;;;;;;;;5092066;28;20294;-69
2022/02/24 02:32:21;;;;;;;67.07;7.13;;;;;;;;;;5092145;28;20291;-71
2022/02/24 02:34:48;;;;;;;66.63;7.65;;;;;;;;;;5092037;28;20224;-69
2022/02/24 02:37:15;;;;;;;64.90;7.65;;;;;;;;;;5091586;28;20682;-70
2022/02/24 02:39:43;;;;;;;64.72;7.30;;;;;;;;;;5091993;28;20211;-69
2022/02/24 02:42:11;;;;;;;72.32;9.02;;;;;;;;;;5091814;28;20266;-69
2022/02/24 02:44:38;;;;;;;64.18;7.53;;;;;;;;;;5089561;28;20221;-69
2022/02/24 02:47:05;;;;;;;65.10;7.15;;;;;;;;;;5091689;28;20230;-72
2022/02/24 02:49:32;;;;;;;64.82;7.40;;;;;;;;;;5091347;28;20210;-70
2022/02/24 02:51:59;;;;;;;70.45;7.22;;;;;;;;;;5091803;28;20212;-69
2022/02/24 02:54:26;;;;;;;62.65;5.97;;;;;;;;;;5091343;28;20573;-69
2022/02/24 02:56:55;;;;;;;66.40;7.68;;;;;;;;;;5092015;28;20202;-72
2022/02/24 02:59:22;;;;;;;63.20;6.75;;;;;;;;;;5089913;28;20203;-69
2022/02/24 03:01:52;;;;;;;63.58;7.25;;;;;;;;;;5091771;28;20204;-69
2022/02/24 03:04:19;;;;;;;62.58;6.35;;;;;;;;;;5091185;28;20607;-69
2022/02/24 03:06:46;;;;;;;68.45;7.50;;;;;;;;;;5091300;28;20230;-69
2022/02/24 03:09:14;;;;;;;66.40;6.32;;;;;;;;;;5091275;28;20684;-70
2022/02/24 03:11:41;;;;;;;65.57;6.93;;;;;;;;;;5091600;28;20640;-69
2022/02/24 03:14:09;;;;;;;62.25;5.78;;;;;;;;;;5091505;28;20215;-72
2022/02/24 03:16:36;;;;;;;65.53;6.25;;;;;;;;;;5091570;28;20317;-70
2022/02/24 03:19:04;;;;;;;65.15;6.80;;;;;;;;;;5090813;28;20648;-70
2022/02/24 03:21:31;;;;;;;71.22;7.10;;;;;;;;;;5091764;28;20210;-70
2022/02/24 03:23:58;;;;;;;66.43;7.20;;;;;;;;;;5091368;28;20200;-72
2022/02/24 03:26:25;;;;;;;62.95;6.60;;;;;;;;;;5092760;28;20315;-69
2022/02/24 03:28:52;;;;;;;63.45;6.65;;;;;;;;;;5095228;28;20214;-70
2022/02/24 03:31:21;;;;;;;64.00;6.80;;;;;;;;;;5095489;28;20598;-70
2022/02/24 03:33:48;;;;;;;62.63;6.68;;;;;;;;;;5073651;28;20213;-69
2022/02/24 03:36:15;;;;;;;65.55;7.35;;;;;;;;;;5075222;28;20334;-69
2022/02/24 03:38:42;;;;;;;63.03;6.63;;;;;;;;;;5074840;28;20211;-69
2022/02/24 03:41:09;;;;;;;67.18;6.82;;;;;;;;;;5075073;28;20208;-69
2022/02/24 03:43:37;;;;;;;64.10;6.65;;;;;;;;;;5074607;28;20211;-72
2022/02/24 03:46:04;;;;;;;62.95;7.22;;;;;;;;;;5074712;28;20224;-69
2022/02/24 03:48:32;;;;;;;71.53;6.85;;;;;;;;;;5073985;28;20300;-72
2022/02/24 03:51:00;;;;;;;67.25;7.10;;;;;;;;;;5074386;28;20692;-69
2022/02/24 03:53:27;;;;;;;64.43;7.05;;;;;;;;;;5074558;28;20231;-70
2022/02/24 03:55:54;;;;;;;66.47;6.75;;;;;;;;;;5074635;28;20316;-70
2022/02/24 03:58:21;;;;;;;67.25;7.15;;;;;;;;;;5074213;28;20207;-72
2022/02/24 04:00:48;;;;;;;64.95;6.35;;;;;;;;;;5074427;28;20215;-70
2022/02/24 04:03:15;;;;;;;61.92;5.95;;;;;;;;;;5073699;28;20200;-72
2022/02/24 04:05:44;;;;;;;63.83;6.75;;;;;;;;;;5087243;28;20243;-69
2022/02/24 04:08:11;;;;;;;65.32;7.28;;;;;;;;;;5093863;28;20230;-70
2022/02/24 04:10:38;;;;;;;64.53;7.18;;;;;;;;;;5094884;28;20208;-70
2022/02/24 04:13:05;;;;;;;63.38;6.10;;;;;;;;;;5094680;28;20295;-69
2022/02/24 04:15:32;;;;;;;62.08;6.18;;;;;;;;;;5094352;28;20594;-69
2022/02/24 04:17:59;;;;;;;64.20;5.75;;;;;;;;;;5093901;28;20436;-69
2022/02/24 04:20:26;;;;;;;62.63;6.20;;;;;;;;;;5094505;28;20211;-70
2022/02/24 04:22:55;;;;;;;63.85;6.38;;;;;;;;;;5094417;28;20290;-73
2022/02/24 04:25:22;;;;;;;67.22;6.15;;;;;;;;;;5094388;28;20315;-70
2022/02/24 04:27:50;;;;;;;68.85;6.25;;;;;;;;;;5093852;28;20224;-70
2022/02/24 04:30:17;;;;;;;64.85;7.18;;;;;;;;;;5093626;28;20204;-70
2022/02/24 04:32:45;;;;;;;62.78;6.28;;;;;;;;;;5093944;28;20630;-70
2022/02/24 04:35:12;;;;;;;64.55;7.35;;;;;;;;;;5093684;28;20224;-70
2022/02/24 04:37:40;;;;;;;65.72;6.22;;;;;;;;;;5078483;28;20287;-71
2022/02/24 04:40:09;;;;;;;63.22;5.22;;;;;;;;;;5073759;28;20205;-70
2022/02/24 04:42:37;;;;;;;67.20;6.22;;;;;;;;;;5073722;28;20579;-69
2022/02/24 04:45:04;;;;;;;65.07;6.03;;;;;;;;;;5073593;28;20709;-70
2022/02/24 04:47:31;;;;;;;61.30;6.70;;;;;;;;;;5073004;28;20331;-69
2022/02/24 04:49:58;;;;;;;64.28;6.00;;;;;;;;;;5073846;28;20399;-71
2022/02/24 04:52:26;;;;;;;63.95;6.78;;;;;;;;;;5073426;28;20296;-70
2022/02/24 04:54:53;;;;;;;64.85;7.22;;;;;;;;;;5073291;28;20224;-71
2022/02/24 04:57:21;;;;;;;61.72;6.13;;;;;;;;;;5073051;28;20648;-70
2022/02/24 04:59:49;;;;;;;65.72;7.15;;;;;;;;;;5073383;28;20240;-70
2022/02/24 05:02:16;;;;;;;63.70;6.40;;;;;;;;;;5073395;28;20237;-70
2022/02/24 05:04:43;;;;;;;61.72;5.75;;;;;;;;;;5073103;28;20224;-72
2022/02/24 05:07:10;;;;;;;65.15;6.28;;;;;;;;;;5072828;28;20599;-72
2022/02/24 05:09:39;;;;;;;62.42;6.63;;;;;;;;;;5071129;28;20215;-71
2022/02/24 05:12:07;;;;;;;63.10;6.32;;;;;;;;;;5073009;28;20213;-69
2022/02/24 05:14:35;;;;;;;63.47;7.05;;;;;;;;;;5073055;28;20256;-69
2022/02/24 05:17:02;;;;;;;67.70;7.10;;;;;;;;;;5073267;28;20213;-69
2022/02/24 05:19:29;;;;;;;63.33;5.90;;;;;;;;;;5072061;28;20208;-72
2022/02/24 05:21:56;;;;;;;62.95;7.03;;;;;;;;;;5073050;28;20555;-69
2022/02/24 05:24:24;;;;;;;64.18;6.70;;;;;;;;;;5072550;28;20743;-69
2022/02/24 05:26:51;;;;;;;63.35;6.78;;;;;;;;;;5072773;28;20295;-69
2022/02/24 05:29:18;;;;;;;63.83;6.45;;;;;;;;;;5072463;28;20213;-69
2022/02/24 05:31:46;;;;;;;63.20;6.60;;;;;;;;;;5072933;28;20207;-69
2022/02/24 05:34:13;;;;;;;64.65;6.50;;;;;;;;;;5072166;28;20221;-69
2022/02/24 05:36:42;;;;;;;65.80;6.10;;;;;;;;;;5072622;28;20291;-70
2022/02/24 05:39:09;;;;;;;65.63;6.78;;;;;;;;;;5071922;28;20638;-69
2022/02/24 05:41:36;;;;;;;64.03;6.55;;;;;;;;;;5089179;28;20212;-70
2022/02/24 05:44:03;;;;;;;63.33;6.18;;;;;;;;;;5092849;28;20211;-69
2022/02/24 05:46:31;;;;;;;61.70;6.20;;;;;;;;;;5092905;28;20200;-70
2022/02/24 05:48:59;;;;;;;63.30;6.65;;;;;;;;;;5091464;28;20315;-69
2022/02/24 05:51:26;;;;;;;63.90;7.82;;;;;;;;;;5091829;28;20294;-71
2022/02/24 05:53:53;;;;;;;69.32;7.47;;;;;;;;;;5092485;28;20200;-69
2022/02/24 05:56:20;;;;;;;64.93;6.70;;;;;;;;;;5092743;28;20210;-70
2022/02/24 05:58:48;;;;;;;66.05;6.43;;;;;;;;;;5092174;28;20200;-69
2022/02/24 06:01:15;;;;;;;69.00;7.43;;;;;;;;;;5092351;28;20200;-70
2022/02/24 06:03:42;;;;;;;67.05;7.70;;;;;;;;;;5091954;28;20204;-69
2022/02/24 06:06:10;;;;;;;63.47;6.57;;;;;;;;;;5092189;28;20224;-69
2022/02/24 06:08:37;;;;;;;63.05;6.05;;;;;;;;;;5092378;28;20226;-70
2022/02/24 06:11:05;;;;;;;67.53;6.68;;;;;;;;;;5092301;28;20206;-72
2022/02/24 06:13:32;;;;;;;70.55;7.95;;;;;;;;;;5090633;28;20295;-69
2022/02/24 06:16:01;;;;;;;65.90;7.30;;;;;;;;;;5092196;28;20235;-70
2022/02/24 06:18:28;;;;;;;63.75;6.35;;;;;;;;;;5091978;28;20222;-70
2022/02/24 06:20:55;;;;;;;61.40;5.75;;;;;;;;;;5092275;28;20218;-72
2022/02/24 06:23:23;;;;;;;64.82;7.30;;;;;;;;;;5092503;28;20295;-70
2022/02/24 06:25:50;;;;;;;67.13;7.35;;;;;;;;;;5092546;28;20228;-69
2022/02/24 06:28:18;;;;;;;61.63;6.38;;;;;;;;;;5091797;28;20314;-70
2022/02/24 06:30:45;;;;;;;61.97;6.22;;;;;;;;;;5092092;28;20647;-70
2022/02/24 06:33:12;;;;;;;61.97;6.72;;;;;;;;;;5091325;28;20644;-70
2022/02/24 06:35:39;;;;;;;64.20;6.63;;;;;;;;;;5091431;28;20319;-69
2022/02/24 06:38:06;;;;;;;64.53;7.85;;;;;;;;;;5091658;28;20206;-70
2022/02/24 06:40:35;;;;;;;65.22;6.60;;;;;;;;;;5092187;28;20306;-70
2022/02/24 06:43:02;;;;;;;69.22;7.07;;;;;;;;;;5091660;28;20291;-70
2022/02/24 06:45:29;;;;;;;65.47;6.80;;;;;;;;;;5074564;28;20605;-70
2022/02/24 06:47:56;;;;;;;64.03;7.70;;;;;;;;;;5070739;28;20224;-71
2022/02/24 06:50:23;;;;;;;62.60;7.18;;;;;;;;;;5071542;28;20204;-70
2022/02/24 06:52:50;;;;;;;64.22;7.15;;;;;;;;;;5071853;28;20212;-69
2022/02/24 06:55:18;;;;;;;65.68;7.78;;;;;;;;;;5071171;28;20270;-69
2022/02/24 06:57:47;;;;;;;61.83;7.07;;;;;;;;;;5071352;28;20731;-70
2022/02/24 07:00:15;;;;;;;65.53;7.15;;;;;;;;;;5070639;28;20275;-71
2022/02/24 07:02:42;;;;;;;69.22;7.75;;;;;;;;;;5074903;28;20215;-70
2022/02/24 07:05:10;;;;;;;65.05;6.85;;;;;;;;;;5075618;28;20337;-70
2022/02/24 07:07:37;;;;;;;66.65;6.82;;;;;;;;;;5075292;28;20221;-69
2022/02/24 07:10:05;;;;;;;65.57;7.10;;;;;;;;;;5075478;28;20219;-70
2022/02/24 07:12:32;;;;;;;64.93;7.45;;;;;;;;;;5075265;28;20205;-69
2022/02/24 07:15:00;;;;;;;61.45;6.57;;;;;;;;;;5074928;28;20346;-69
2022/02/24 07:17:28;;;;;;;65.28;6.82;;;;;;;;;;5085087;28;20214;-69
2022/02/24 07:19:55;;;;;;;62.47;6.30;;;;;;;;;;5095543;28;20210;-71
2022/02/24 07:22:22;;;;;;;65.07;7.15;;;;;;;;;;5095960;28;20651;-70
2022/02/24 07:24:49;;;;;;;64.15;7.22;;;;;;;;;;5094979;28;20224;-71
2022/02/24 07:27:16;;;;;;;68.30;6.95;;;;;;;;;;5094591;28;20209;-70
2022/02/24 07:29:43;;;;;;;63.90;6.85;;;;;;;;;;5094195;28;20775;-70
2022/02/24 07:32:12;;;;;;;66.65;7.45;;;;;;;;;;5093782;28;20560;-68
2022/02/24 07:34:39;;;;;;;64.20;7.90;;;;;;;;;;5095344;28;20315;-68
2022/02/24 07:37:06;;;;;;;67.72;6.90;;;;;;;;;;5095305;28;20204;-68
2022/02/24 07:39:33;;;;;;;63.75;7.05;;;;;;;;;;5095161;28;20295;-68
2022/02/24 07:42:01;;;;;;;63.20;6.70;;;;;;;;;;5094872;28;20218;-69
2022/02/24 07:44:28;;;;;;;65.40;6.75;;;;;;;;;;5095122;28;20224;-70
2022/02/24 07:46:55;;;;;;;62.80;7.10;;;;;;;;;;5095432;28;20208;-69
2022/02/24 07:49:24;;;;;;;68.95;7.53;;;;;;;;;;5094803;28;20319;-70
2022/02/24 07:51:52;;;;;;;66.30;6.43;;;;;;;;;;5095063;28;20216;-69
2022/02/24 07:54:20;;;;;;;65.55;7.25;;;;;;;;;;5094849;28;20732;-69
2022/02/24 07:56:47;;;;;;;68.15;8.02;;;;;;;;;;5095133;28;20297;-70
2022/02/24 07:59:14;;;;;;;65.43;7.00;;;;;;;;;;5094733;28;20291;-69
2022/02/24 08:01:41;;;;;;;63.90;6.82;;;;;;;;;;5095192;28;20203;-69
2022/02/24 08:04:09;;;;;;;64.78;6.75;;;;;;;;;;5094775;28;20676;-69
2022/02/24 08:06:38;;;;;;;64.40;6.95;;;;;;;;;;5094899;28;20205;-70
2022/02/24 08:09:07;;;;;;;64.20;7.55;;;;;;;;;;5094129;28;20657;-69
2022/02/24 08:11:34;;;;;;;63.30;6.45;;;;;;;;;;5094698;28;20208;-69
2022/02/24 08:14:01;;;;;;;68.07;7.28;;;;;;;;;;5093277;28;20688;-69
2022/02/24 08:16:29;;;;;;;61.00;6.20;;;;;;;;;;5094570;28;20258;-69
2022/02/24 08:18:59;;;;;;;65.28;7.40;;;;;;;;;;5094792;28;20446;-69
2022/02/24 08:21:26;;;;;;;65.20;6.85;;;;;;;;;;5091830;28;20209;-69
2022/02/24 08:23:55;;;;;;;66.38;7.47;;;;;;;;;;5094295;28;20200;-69
2022/02/24 08:26:22;;;;;;;68.57;7.20;;;;;;;;;;5094300;28;20681;-69
2022/02/24 08:28:51;;;;;;;65.95;6.80;;;;;;;;;;5093982;28;20482;-69
2022/02/24 08:31:19;;;;;;;62.95;6.40;;;;;;;;;;5094249;28;20210;-71
2022/02/24 08:33:46;;;;;;;64.40;6.72;;;;;;;;;;5094231;28;20214;-69
2022/02/24 08:36:15;;;;;;;63.17;6.65;;;;;;;;;;5094415;28;20313;-70
2022/02/24 08:38:42;;;;;;;61.57;6.17;;;;;;;;;;5093636;28;20212;-69
2022/02/24 08:41:11;;;;;;;68.83;7.23;;;;;;;;;;5094301;28;20444;-69
2022/02/24 08:43:38;;;;;;;63.77;6.50;;;;;;;;;;5093958;28;20475;-70
2022/02/24 08:46:05;;;;;;;64.03;6.03;;;;;;;;;;5093954;28;20465;-72
2022/02/24 08:48:33;;;;;;;63.53;5.70;;;;;;;;;;5093450;28;20481;-69
2022/02/24 08:51:01;;;;;;;63.63;5.80;;;;;;;;;;5092765;28;20452;-75
2022/02/24 08:53:28;;;;;;;65.07;5.53;;;;;;;;;;5093083;28;20977;-70
2022/02/24 08:55:55;;;;;;;60.70;5.10;;;;;;;;;;5093885;28;20461;-70
2022/02/24 08:58:23;;;;;;;61.93;5.60;;;;;;;;;;5093567;28;20801;-70
2022/02/24 09:00:51;;;;;;;60.03;4.50;;;;;;;;;;5093756;28;20540;-70
2022/02/24 09:03:18;;;;;;;62.73;5.30;;;;;;;;;;5093444;28;20481;-70
2022/02/24 09:05:46;;;;;;;63.90;5.60;;;;;;;;;;5093764;28;20469;-72
2022/02/24 09:08:13;;;;;;;64.13;4.80;;;;;;;;;;5093404;28;20472;-70
2022/02/24 09:10:40;;;;;;;62.97;4.70;;;;;;;;;;5093516;28;20942;-70
2022/02/24 09:13:08;;;;;;;60.00;4.90;;;;;;;;;;5093347;28;21005;-70
2022/02/24 09:15:36;;;;;;;60.70;4.90;;;;;;;;;;5093309;28;20461;-70
2022/02/24 09:18:04;;;;;;;60.30;4.60;;;;;;;;;;5093366;28;20445;-70
2022/02/24 09:20:32;;;;;;;63.10;5.67;;;;;;;;;;5093530;28;20453;-70
2022/02/24 09:22:59;;;;;;;61.10;4.93;;;;;;;;;;5090658;28;20446;-70
2022/02/24 09:25:26;;;;;;;62.40;5.57;;;;;;;;;;5092979;28;20465;-73
2022/02/24 09:27:53;;;;;;;61.50;4.53;;;;;;;;;;5092802;28;20445;-70
2022/02/24 09:30:21;;;;;;;67.23;5.60;;;;;;;;;;5093066;28;20457;-71
2022/02/24 09:32:51;;;;;;;60.93;4.90;;;;;;;;;;5093296;28;20852;-71
2022/02/24 09:35:18;;;;;;;64.00;4.60;;;;;;;;;;5093160;28;20474;-69
2022/02/24 09:37:45;;;;;;;59.90;4.43;;;;;;;;;;5092893;28;20482;-68
2022/02/24 09:40:14;;;;;;;65.17;4.70;;;;;;;;;;5092950;28;20926;-69
2022/02/24 09:42:42;;;;;;;60.97;4.57;;;;;;;;;;5092631;28;20545;-70
2022/02/24 09:45:10;;;;;;;62.27;4.50;;;;;;;;;;5092994;28;20462;-70
2022/02/24 09:47:38;;;;;;;60.67;4.70;;;;;;;;;;5092451;28;20537;-70
2022/02/24 09:50:07;;;;;;;61.87;4.53;;;;;;;;;;5092801;28;20508;-69
2022/02/24 09:52:34;;;;;;;60.50;4.53;;;;;;;;;;5092721;28;20915;-72
2022/02/24 09:55:02;;;;;;;59.40;4.00;;;;;;;;;;5090344;28;20473;-69
2022/02/24 09:57:29;;;;;;;59.27;3.83;;;;;;;;;;5092165;28;20934;-70
2022/02/24 09:59:56;;;;;;;62.50;4.63;;;;;;;;;;5092645;28;20443;-69
2022/02/24 10:02:23;;;;;;;60.20;3.80;;;;;;;;;;5092642;28;20474;-69
2022/02/24 10:05:08;;;;;;;60.47;4.40;;;;;;;;;;5092702;28;20501;-69
2022/02/24 10:07:38;;;;;;;60.60;4.23;;;;;;;;;;5092328;28;20446;-70
2022/02/24 10:10:28;;;;;;;59.97;4.30;;;;;;;;;;5092154;28;20481;-70
2022/02/24 10:13:07;;;;;;;61.17;5.20;;;;;;;;;;5092371;28;20483;-70
2022/02/24 10:15:34;;;;;;;61.17;4.00;;;;;;;;;;5092235;28;20458;-69
2022/02/24 10:18:06;;;;;;;63.97;4.73;;;;;;;;;;5091940;28;20451;-72
2022/02/24 10:20:37;;;;;;;64.00;4.83;;;;;;;;;;5092376;28;20474;-70
2022/02/24 10:23:05;;;;;;;66.83;4.47;;;;;;;;;;5092211;28;20443;-70
2022/02/24 10:25:38;;;;;;;63.33;4.77;;;;;;;;;;5089474;28;20551;-70
2022/02/24 10:28:05;;;;;;;59.70;4.17;;;;;;;;;;5091528;28;20444;-69
2022/02/24 10:30:34;;;;;;;59.47;4.27;;;;;;;;;;5092005;28;20479;-71
2022/02/24 10:33:02;;;;;;;59.73;4.10;;;;;;;;;;5091949;28;20525;-70
2022/02/24 10:35:32;;;;;;;61.30;4.50;;;;;;;;;;5091806;28;20469;-71
2022/02/24 10:38:06;;;;;;;62.13;4.10;;;;;;;;;;5091489;28;20456;-71
2022/02/24 10:40:34;;;;;;;64.90;4.23;;;;;;;;;;5091831;28;20496;-71
2022/02/24 10:43:11;;;;;;;60.53;4.03;;;;;;;;;;5089155;28;20453;-71
2022/02/24 10:45:38;;;;;;;59.27;3.53;;;;;;;;;;5091797;28;20579;-71
2022/02/24 10:48:08;;;;;;;60.20;4.03;;;;;;;;;;5091569;28;20459;-71
2022/02/24 10:50:45;;;;;;;70.70;3.93;;;;;;;;;;5091746;28;20483;-70
2022/02/24 10:53:14;;;;;;;59.30;3.70;;;;;;;;;;5091444;28;20488;-70
2022/02/24 10:55:55;;;;;;;60.00;3.60;;;;;;;;;;5091436;28;20677;-70
2022/02/24 10:58:22;;;;;;;77.53;3.73;;;;;;;;;;5091615;28;20447;-70
2022/02/24 11:00:49;;;;;;;59.60;4.10;;;;;;;;;;5091650;28;20531;-70
2022/02/24 11:03:16;;;;;;;60.40;3.87;;;;;;;;;;5091245;28;20536;-73
2022/02/24 11:05:44;;;;;;;59.00;3.30;;;;;;;;;;5091345;28;20487;-70
2022/02/24 11:08:12;;;;;;;63.30;3.33;;;;;;;;;;5091352;28;20860;-73
2022/02/24 11:10:40;;;;;;;63.00;3.20;;;;;;;;;;5091577;28;20485;-75
2022/02/24 11:13:08;;;;;;;59.83;3.33;;;;;;;;;;5091520;28;20573;-70
2022/02/24 11:15:35;;;;;;;60.07;3.37;;;;;;;;;;5091595;28;20929;-70
2022/02/24 11:18:02;;;;;;;59.40;3.57;;;;;;;;;;5090907;28;20476;-69
2022/02/24 11:20:30;;;;;;;59.00;3.20;;;;;;;;;;5091230;28;20442;-71
2022/02/24 11:22:57;;;;;;;58.73;3.43;;;;;;;;;;5091364;28;20541;-70
2022/02/24 11:25:28;;;;;;;59.17;3.30;;;;;;;;;;5091143;28;20466;-70
2022/02/24 11:27:57;;;;;;;62.53;4.00;;;;;;;;;;5091106;28;20446;-72
2022/02/24 11:30:28;;;;;;;59.00;3.40;;;;;;;;;;5091288;28;21013;-69
2022/02/24 11:32:55;;;;;;;59.07;3.23;;;;;;;;;;5091139;28;20477;-70
2022/02/24 11:35:25;;;;;;;59.73;3.87;;;;;;;;;;5091092;28;20984;-69
2022/02/24 11:37:53;;;;;;;59.60;3.30;;;;;;;;;;5091238;28;20819;-71
2022/02/24 11:40:21;;;;;;;59.60;3.13;;;;;;;;;;5091423;28;20439;-72
2022/02/24 11:43:03;;;;;;;58.70;3.27;;;;;;;;;;5091322;28;20790;-70
2022/02/24 11:45:35;;;;;;;58.70;3.20;;;;;;;;;;5091057;28;20481;-72
2022/02/24 11:48:04;;;;;;;61.00;3.57;;;;;;;;;;5093082;28;20463;-71
2022/02/24 11:50:39;;;;;;;59.07;3.57;;;;;;;;;;5094887;28;20569;-70
2022/02/24 11:53:07;;;;;;;60.10;3.30;;;;;;;;;;5095278;28;20525;-71
2022/02/24 11:55:53;;;;;;;58.77;3.23;;;;;;;;;;5094890;28;20511;-69
2022/02/24 11:58:34;;;;;;;59.57;3.27;;;;;;;;;;5094607;28;20477;-69
2022/02/24 12:01:22;;;;;;;58.47;2.80;;;;;;;;;;5095092;28;20474;-70
2022/02/24 12:03:54;;;;;;;60.67;3.10;;;;;;;;;;5088150;28;20460;-69
2022/02/24 12:06:21;;;;;;;64.40;3.33;;;;;;;;;;5092585;28;20455;-70
2022/02/24 12:09:10;;;;;;;60.40;3.33;;;;;;;;;;5094438;28;20815;-70
2022/02/24 12:11:39;;;;;;;61.70;2.90;;;;;;;;;;5088456;28;20847;-70
2022/02/24 12:14:30;;;;;;;58.70;3.23;;;;;;;;;;5094618;28;20558;-69
2022/02/24 12:17:06;;;;;;;58.90;3.17;;;;;;;;;;5094009;28;20478;-69
2022/02/24 12:19:40;;;;;;;60.70;3.67;;;;;;;;;;5093425;28;20449;-71
2022/02/24 12:22:15;;;;;;;60.20;3.40;;;;;;;;;;5094349;28;20484;-70
2022/02/24 12:24:44;;;;;;;60.70;3.20;;;;;;;;;;5094117;28;20464;-69
2022/02/24 12:27:29;;;;;;;58.93;3.03;;;;;;;;;;5094053;28;20488;-70
2022/02/24 12:30:01;;;;;;;59.23;3.30;;;;;;;;;;5094091;28;20518;-69
2022/02/24 12:32:44;;;;;;;60.20;3.53;;;;;;;;;;5094027;28;20451;-69
2022/02/24 12:35:12;;;;;;;59.40;3.30;;;;;;;;;;5094227;28;20531;-69
2022/02/24 12:37:39;;;;;;;59.07;3.23;;;;;;;;;;5093795;28;20458;-72
2022/02/24 12:40:07;;;;;;;59.30;3.40;;;;;;;;;;5092603;28;20446;-70
2022/02/24 12:42:34;;;;;;;60.30;3.30;;;;;;;;;;5094096;28;20456;-69
2022/02/24 12:45:03;;;;;;;57.90;3.10;;;;;;;;;;5093934;28;20558;-70
2022/02/24 12:47:30;;;;;;;58.83;3.10;;;;;;;;;;5093754;28;20941;-69
2022/02/24 12:49:57;;;;;;;60.90;3.00;;;;;;;;;;5093930;28;20478;-69
2022/02/24 12:52:26;;;;;;;66.20;3.77;;;;;;;;;;5093719;28;20453;-69
2022/02/24 12:54:54;;;;;;;60.97;3.60;;;;;;;;;;5093920;28;20472;-71
2022/02/24 12:57:21;;;;;;;62.00;3.53;;;;;;;;;;5093664;28;20448;-69
2022/02/24 12:59:49;;;;;;;59.07;2.90;;;;;;;;;;5093478;28;20448;-70
2022/02/24 13:02:18;;;;;;;59.97;3.37;;;;;;;;;;5094072;28;20877;-69
2022/02/24 13:04:45;;;;;;;58.47;2.97;;;;;;;;;;5093479;28;20462;-69
2022/02/24 13:09:42;;;;;;;59.97;3.00;;;;;;;;;;5093042;28;20447;-70
2022/02/24 13:10:01;;;;;;;63.73;3.50;;;;;;;;;;5092925;28;20470;-69
2022/02/24 13:12:28;;;;;;;59.07;3.00;;;;;;;;;;5081522;28;20534;-68
2022/02/24 13:14:55;;;;;;;60.13;3.50;;;;;;;;;;5073213;28;20831;-69
2022/02/24 13:17:25;;;;;;;59.80;3.20;;;;;;;;;;5072612;28;20447;-69
2022/02/24 13:19:52;;;;;;;58.80;3.03;;;;;;;;;;5073265;28;20448;-69
2022/02/24 13:22:20;;;;;;;59.87;3.03;;;;;;;;;;5073012;28;20456;-69
2022/02/24 13:24:47;;;;;;;59.80;3.27;;;;;;;;;;5073101;28;20809;-69
2022/02/24 13:27:18;;;;;;;60.87;3.33;;;;;;;;;;5072781;28;20474;-71
2022/02/24 13:29:47;;;;;;;59.90;3.30;;;;;;;;;;5072548;28;20491;-69
2022/02/24 13:32:15;;;;;;;58.70;3.00;;;;;;;;;;5072965;28;20445;-70
2022/02/24 13:34:44;;;;;;;58.70;3.00;;;;;;;;;;5072577;28;20471;-69
2022/02/24 13:37:14;;;;;;;59.87;3.30;;;;;;;;;;5072384;28;20490;-70
2022/02/24 13:39:41;;;;;;;60.40;2.93;;;;;;;;;;5072751;28;20459;-69
2022/02/24 13:42:08;;;;;;;58.87;2.87;;;;;;;;;;5072719;28;20819;-69
2022/02/24 13:44:40;;;;;;;60.00;3.30;;;;;;;;;;5078942;28;20470;-69
2022/02/24 13:47:08;;;;;;;59.67;3.30;;;;;;;;;;5092738;28;20443;-71
2022/02/24 13:49:35;;;;;;;61.70;4.50;;;;;;;;;;5092832;28;20572;-70
2022/02/24 13:52:04;;;;;;;59.40;3.37;;;;;;;;;;5092898;28;20448;-70
2022/02/24 13:54:32;;;;;;;60.10;3.10;;;;;;;;;;5092639;28;20461;-70
2022/02/24 13:56:59;;;;;;;64.57;4.17;;;;;;;;;;5092514;28;21025;-69
2022/02/24 13:59:28;;;;;;;60.47;3.13;;;;;;;;;;5092614;28;20468;-70
2022/02/24 14:01:56;;;;;;;61.70;3.70;;;;;;;;;;5092712;28;20806;-69
2022/02/24 14:04:23;;;;;;;60.50;3.67;;;;;;;;;;5092498;28;21025;-70
2022/02/24 14:06:50;;;;;;;59.43;3.00;;;;;;;;;;5092669;28;20474;-70
2022/02/24 14:09:20;;;;;;;62.17;3.30;;;;;;;;;;5092177;28;20438;-70
2022/02/24 14:11:48;;;;;;;59.73;3.03;;;;;;;;;;5091920;28;20443;-69
2022/02/24 14:14:17;;;;;;;62.60;3.20;;;;;;;;;;5092083;28;20512;-70
2022/02/24 14:16:44;;;;;;;65.10;3.73;;;;;;;;;;5090886;28;20943;-69
2022/02/24 14:19:12;;;;;;;59.20;3.40;;;;;;;;;;5092051;28;20534;-70
2022/02/24 14:21:39;;;;;;;59.30;3.13;;;;;;;;;;5092106;28;20473;-70
2022/02/24 14:24:06;;;;;;;59.40;3.20;;;;;;;;;;5091885;28;20578;-70
2022/02/24 14:26:35;;;;;;;59.30;3.10;;;;;;;;;;5091990;28;20454;-69
2022/02/24 14:29:02;;;;;;;60.47;3.80;;;;;;;;;;5091617;28;20554;-72
2022/02/24 14:31:29;;;;;;;64.10;3.23;;;;;;;;;;5092147;28;20581;-70
2022/02/24 14:33:59;;;;;;;59.90;3.40;;;;;;;;;;5091895;28;20465;-71
2022/02/24 14:36:26;;;;;;;61.80;3.50;;;;;;;;;;5091727;28;20447;-69
2022/02/24 14:38:53;;;;;;;63.67;4.70;;;;;;;;;;5091918;28;20434;-70